Time;durP1;ratioP1;P1;durP2;ratioP2;P2;SDS_P1;SDS_P2;PMS_P1;PMS_P2;Temp;Humidity;BMP_temperature;BMP_pressure;BME280_temperature;BME280_humidity;BME280_pressure;Samples;Min_cycle;Max_cycle;Signal;HPM_P1;HPM_P2
2024/01/09 00:01:43;;;;;;;0.80;0.80;;;-3275.30;48.90;;;;;;5070358;28;20068;-70
2024/01/09 00:04:10;;;;;;;0.70;0.70;;;-3275.30;48.90;;;;;;5069113;28;20417;-70
2024/01/09 00:06:35;;;;;;;0.70;0.70;;;-3275.30;48.90;;;;;;5069854;28;20036;-70
2024/01/09 00:09:02;;;;;;;1.23;1.23;;;-3275.20;49.00;;;;;;5070102;28;20446;-70
2024/01/09 00:11:28;;;;;;;0.70;0.70;;;-3275.30;49.00;;;;;;5069363;28;20480;-69
2024/01/09 00:13:53;;;;;;;0.80;0.80;;;-3275.20;49.00;;;;;;5069910;28;20060;-69
2024/01/09 00:16:20;;;;;;;1.17;1.17;;;-3275.20;49.20;;;;;;5068951;28;20039;-69
2024/01/09 00:18:45;;;;;;;0.73;0.73;;;-3275.10;49.40;;;;;;5069030;28;20064;-69
2024/01/09 00:21:11;;;;;;;1.42;1.33;;;-3275.10;49.50;;;;;;5069344;28;20055;-69
2024/01/09 00:23:36;;;;;;;0.63;0.63;;;-3275.10;49.50;;;;;;5067556;28;20488;-69
2024/01/09 00:26:02;;;;;;;0.70;0.70;;;-3275.10;49.60;;;;;;5069604;28;20067;-69
2024/01/09 00:28:27;;;;;;;0.60;0.60;;;-3275.10;49.70;;;;;;5068582;28;20537;-69
2024/01/09 00:30:53;;;;;;;0.80;0.80;;;-3275.00;49.70;;;;;;5070090;28;20427;-69
2024/01/09 00:33:18;;;;;;;0.70;0.70;;;-3275.00;49.80;;;;;;5069084;28;20372;-69
2024/01/09 00:35:44;;;;;;;0.70;0.70;;;-3274.90;50.00;;;;;;5066508;28;20468;-69
2024/01/09 00:38:10;;;;;;;0.70;0.70;;;-3274.90;50.20;;;;;;5070525;28;20040;-69
2024/01/09 00:40:35;;;;;;;0.70;0.70;;;-3274.80;50.30;;;;;;5069100;28;20440;-69
2024/01/09 00:43:01;;;;;;;0.70;0.70;;;-3274.80;50.40;;;;;;5071132;28;20016;-69
2024/01/09 00:45:26;;;;;;;0.60;0.60;;;-3274.80;50.60;;;;;;5070967;28;20387;-69
2024/01/09 00:47:52;;;;;;;0.70;0.70;;;-3274.70;50.80;;;;;;5071509;28;20025;-69
2024/01/09 00:50:17;;;;;;;1.20;1.20;;;-3274.70;51.00;;;;;;5071030;28;20032;-70
2024/01/09 00:52:42;;;;;;;0.70;0.70;;;-3274.70;51.00;;;;;;5071319;28;20352;-69
2024/01/09 00:55:08;;;;;;;0.70;0.70;;;-3274.60;51.10;;;;;;5070950;28;20047;-69
2024/01/09 00:57:35;;;;;;;1.38;1.27;;;-3274.60;51.20;;;;;;5071533;28;20028;-69
2024/01/09 01:00:00;;;;;;;0.65;0.65;;;-3274.60;51.30;;;;;;5080653;28;20415;-69
2024/01/09 01:02:26;;;;;;;0.70;0.70;;;-3274.60;51.30;;;;;;5091476;28;20074;-69
2024/01/09 01:04:51;;;;;;;0.60;0.60;;;-3274.60;51.50;;;;;;5074308;28;20051;-69
2024/01/09 01:07:17;;;;;;;0.70;0.70;;;-3274.50;51.60;;;;;;5070674;28;20037;-69
2024/01/09 01:09:42;;;;;;;0.70;0.70;;;-3274.50;51.70;;;;;;5070631;28;20067;-69
2024/01/09 01:12:08;;;;;;;1.08;1.05;;;-3274.40;51.90;;;;;;5070984;28;20072;-69
2024/01/09 01:14:33;;;;;;;0.60;0.60;;;-3274.40;51.90;;;;;;5070618;28;20036;-69
2024/01/09 01:16:59;;;;;;;0.68;0.68;;;-3274.40;52.10;;;;;;5070967;28;20158;-69
2024/01/09 01:19:25;;;;;;;0.70;0.70;;;-3274.30;52.10;;;;;;5070301;28;20078;-69
2024/01/09 01:21:50;;;;;;;1.95;1.85;;;-3274.30;52.40;;;;;;5070545;28;20380;-69
2024/01/09 01:24:16;;;;;;;0.70;0.70;;;-3274.30;52.60;;;;;;5070476;28;20035;-69
2024/01/09 01:26:41;;;;;;;0.60;0.60;;;-3274.30;52.60;;;;;;5070459;28;20028;-69
2024/01/09 01:29:06;;;;;;;0.70;0.70;;;-3274.20;52.70;;;;;;5070528;28;20040;-69
2024/01/09 01:31:32;;;;;;;0.60;0.60;;;-3274.20;52.70;;;;;;5070805;28;20494;-69
2024/01/09 01:33:58;;;;;;;0.60;0.60;;;-3274.20;52.90;;;;;;5070302;28;20036;-69
2024/01/09 01:36:23;;;;;;;0.70;0.70;;;-3274.20;52.80;;;;;;5070355;28;20601;-69
2024/01/09 01:38:48;;;;;;;0.80;0.80;;;-3274.10;52.90;;;;;;5070369;28;20539;-69
2024/01/09 01:41:14;;;;;;;0.80;0.80;;;-3274.10;53.00;;;;;;5070542;28;20029;-69
2024/01/09 01:43:39;;;;;;;0.60;0.60;;;-3274.00;53.00;;;;;;5070350;28;20468;-69
2024/01/09 01:46:05;;;;;;;0.73;0.73;;;-3274.00;53.00;;;;;;5069418;28;20146;-69
2024/01/09 01:48:33;;;;;;;0.70;0.70;;;-3274.00;53.10;;;;;;5070963;28;20256;-67
2024/01/09 01:50:58;;;;;;;0.80;0.80;;;-3273.90;53.10;;;;;;5070520;28;20099;-67
2024/01/09 01:53:26;;;;;;;0.73;0.73;;;-3273.90;53.30;;;;;;5055808;28;20133;-67
2024/01/09 01:55:51;;;;;;;0.60;0.60;;;-3273.80;53.30;;;;;;5050268;28;20376;-66
2024/01/09 01:58:17;;;;;;;0.60;0.60;;;-3273.70;53.30;;;;;;5050828;28;20040;-66
2024/01/09 02:00:43;;;;;;;0.70;0.70;;;-3273.70;53.70;;;;;;5052865;28;20036;-67
2024/01/09 02:03:11;;;;;;;1.40;1.35;;;-3273.70;54.00;;;;;;5054585;28;20028;-66
2024/01/09 02:05:36;;;;;;;0.70;0.70;;;-3273.70;54.20;;;;;;5053854;28;20040;-67
2024/01/09 02:08:04;;;;;;;0.70;0.70;;;-3273.60;54.10;;;;;;5061150;28;20046;-66
2024/01/09 02:10:29;;;;;;;1.95;1.75;;;-3273.60;54.20;;;;;;5076612;28;20044;-67
2024/01/09 02:12:55;;;;;;;0.57;0.57;;;-3273.60;54.40;;;;;;5074129;28;20081;-67
2024/01/09 02:15:20;;;;;;;0.70;0.70;;;-3273.70;54.60;;;;;;5074059;28;20037;-67
2024/01/09 02:17:46;;;;;;;0.70;0.70;;;-3273.70;54.70;;;;;;5094192;28;20043;-67
2024/01/09 02:20:11;;;;;;;0.60;0.60;;;-3273.70;54.70;;;;;;5093813;28;20077;-68
2024/01/09 02:22:37;;;;;;;0.68;0.68;;;-3273.70;54.80;;;;;;5072796;28;20099;-66
2024/01/09 02:25:03;;;;;;;0.60;0.60;;;-3273.70;54.70;;;;;;5076584;28;20020;-66
2024/01/09 02:27:45;;;;;;;0.90;0.90;;;-3273.70;54.70;;;;;;5073861;28;20211;-67
2024/01/09 02:30:11;;;;;;;0.57;0.57;;;-3273.70;54.70;;;;;;5079476;28;20063;-66
2024/01/09 02:32:37;;;;;;;1.05;1.05;;;-3273.70;54.90;;;;;;5093957;28;20387;-66
2024/01/09 02:35:03;;;;;;;0.60;0.60;;;-3273.80;55.00;;;;;;5093486;28;20165;-66
2024/01/09 02:37:28;;;;;;;0.60;0.60;;;-3273.80;55.10;;;;;;5093660;28;20156;-67
2024/01/09 02:40:00;;;;;;;0.70;0.70;;;-3273.80;55.00;;;;;;5093470;28;20032;-66
2024/01/09 02:42:26;;;;;;;0.90;0.90;;;-3273.80;55.10;;;;;;5087309;28;20367;-67
2024/01/09 02:44:54;;;;;;;0.80;0.80;;;-3273.80;55.20;;;;;;5073064;28;20036;-66
2024/01/09 02:47:21;;;;;;;0.70;0.70;;;-3273.90;55.10;;;;;;5073409;28;20079;-67
2024/01/09 02:49:46;;;;;;;0.90;0.90;;;-3273.90;55.00;;;;;;5073203;28;20060;-66
2024/01/09 02:52:12;;;;;;;0.60;0.60;;;-3273.90;55.00;;;;;;5073443;28;20114;-66
2024/01/09 02:54:37;;;;;;;0.80;0.80;;;-3273.90;54.80;;;;;;5073013;28;20043;-66
2024/01/09 02:57:03;;;;;;;0.90;0.90;;;-3274.00;54.80;;;;;;5070634;28;20413;-69
2024/01/09 02:59:28;;;;;;;0.60;0.60;;;-3274.00;54.70;;;;;;5068705;28;20032;-69
2024/01/09 03:01:54;;;;;;;0.80;0.80;;;-3274.00;54.70;;;;;;5072538;28;20051;-69
2024/01/09 03:04:20;;;;;;;0.77;0.77;;;-3274.00;54.60;;;;;;5071767;28;20078;-69
2024/01/09 03:06:45;;;;;;;0.75;0.75;;;-3274.00;54.50;;;;;;5074349;28;20107;-69
2024/01/09 03:09:11;;;;;;;0.60;0.60;;;-3274.10;54.50;;;;;;5072649;28;20123;-69
2024/01/09 03:11:37;;;;;;;0.60;0.60;;;-3274.10;54.40;;;;;;5074055;28;20029;-69
2024/01/09 03:14:02;;;;;;;0.60;0.60;;;-3274.10;54.40;;;;;;5072381;28;20025;-69
2024/01/09 03:16:28;;;;;;;0.93;0.93;;;-3274.10;54.30;;;;;;5072307;28;20363;-69
2024/01/09 03:18:53;;;;;;;0.80;0.80;;;-3274.10;54.30;;;;;;5072330;28;20044;-69
2024/01/09 03:21:19;;;;;;;0.85;0.85;;;-3274.10;54.30;;;;;;5072601;28;20482;-69
2024/01/09 03:23:44;;;;;;;0.70;0.70;;;-3274.00;54.30;;;;;;5072439;28;20048;-69
2024/01/09 03:26:10;;;;;;;2.28;2.05;;;-3274.00;54.40;;;;;;5072183;28;20464;-69
2024/01/09 03:28:36;;;;;;;0.60;0.60;;;-3274.00;54.40;;;;;;5072062;28;20033;-69
2024/01/09 03:31:02;;;;;;;0.80;0.80;;;-3274.00;54.50;;;;;;5071940;28;20426;-69
2024/01/09 03:33:28;;;;;;;0.75;0.75;;;-3274.00;54.50;;;;;;5072060;28;20070;-69
2024/01/09 03:35:53;;;;;;;0.60;0.60;;;-3274.00;54.40;;;;;;5072227;28;20100;-69
2024/01/09 03:38:19;;;;;;;0.60;0.60;;;-3273.90;54.40;;;;;;5072283;28;20531;-69
2024/01/09 03:40:45;;;;;;;0.70;0.70;;;-3273.90;54.60;;;;;;5071846;28;20069;-69
2024/01/09 03:43:11;;;;;;;1.33;1.23;;;-3273.90;54.70;;;;;;5072389;28;20466;-69
2024/01/09 03:45:36;;;;;;;2.15;1.35;;;-3273.90;54.70;;;;;;5071664;28;20032;-69
2024/01/09 03:48:02;;;;;;;0.80;0.80;;;-3273.80;54.80;;;;;;5070908;28;20040;-69
2024/01/09 03:50:27;;;;;;;0.60;0.60;;;-3273.90;54.90;;;;;;5070950;28;20036;-69
2024/01/09 03:52:53;;;;;;;1.88;1.77;;;-3273.80;54.90;;;;;;5072061;28;20028;-69
2024/01/09 03:55:18;;;;;;;0.60;0.60;;;-3273.80;54.80;;;;;;5071490;28;20535;-69
2024/01/09 03:57:44;;;;;;;1.90;1.70;;;-3273.80;54.90;;;;;;5071772;28;20029;-69
2024/01/09 04:00:10;;;;;;;1.15;1.15;;;-3273.70;55.00;;;;;;5071480;28;20064;-69
2024/01/09 04:02:36;;;;;;;0.70;0.70;;;-3273.70;55.10;;;;;;5071679;28;20056;-68
2024/01/09 04:05:02;;;;;;;1.45;1.40;;;-3273.70;55.20;;;;;;5071697;28;20083;-69
2024/01/09 04:07:27;;;;;;;1.88;1.77;;;-3273.70;55.10;;;;;;5074656;28;20032;-69
2024/01/09 04:09:53;;;;;;;0.60;0.60;;;-3273.60;55.10;;;;;;5091003;28;20513;-69
2024/01/09 04:12:18;;;;;;;0.73;0.73;;;-3273.50;55.30;;;;;;5081200;28;20020;-69
2024/01/09 04:14:44;;;;;;;0.70;0.70;;;-3273.50;55.60;;;;;;5071524;28;20097;-69
2024/01/09 04:17:09;;;;;;;0.70;0.70;;;-3273.50;55.60;;;;;;5071568;28;20046;-69
2024/01/09 04:19:38;;;;;;;0.80;0.80;;;-3273.40;55.70;;;;;;5071479;28;20395;-69
2024/01/09 04:22:05;;;;;;;1.17;1.02;;;-3273.40;55.90;;;;;;5071253;28;20027;-69
2024/01/09 04:24:31;;;;;;;0.70;0.70;;;-3273.30;55.90;;;;;;5077241;28;20039;-69
2024/01/09 04:26:57;;;;;;;0.90;0.90;;;-3273.30;56.10;;;;;;5091578;28;20031;-69
2024/01/09 04:29:23;;;;;;;0.60;0.60;;;-3273.30;56.30;;;;;;5091451;28;20032;-69
2024/01/09 04:31:49;;;;;;;0.70;0.70;;;-3273.30;56.40;;;;;;5091604;28;20055;-69
2024/01/09 04:34:14;;;;;;;1.02;1.02;;;-3273.30;56.50;;;;;;5091432;28;20479;-69
2024/01/09 04:36:40;;;;;;;2.72;2.47;;;-3273.30;56.40;;;;;;5091583;28;20374;-69
2024/01/09 04:39:05;;;;;;;0.60;0.60;;;-3273.30;56.40;;;;;;5091754;28;20032;-69
2024/01/09 04:41:30;;;;;;;1.02;1.02;;;-3273.20;56.50;;;;;;5091150;28;20035;-69
2024/01/09 04:43:56;;;;;;;2.03;1.92;;;-3273.20;56.40;;;;;;5091303;28;20104;-69
2024/01/09 04:46:21;;;;;;;0.70;0.70;;;-3273.10;56.40;;;;;;5091320;28;20067;-69
2024/01/09 04:48:47;;;;;;;0.60;0.60;;;-3273.10;56.60;;;;;;5091026;28;20050;-69
2024/01/09 04:51:13;;;;;;;0.70;0.70;;;-3273.10;56.70;;;;;;5091142;28;20020;-69
2024/01/09 04:53:38;;;;;;;0.70;0.70;;;-3273.10;56.70;;;;;;5091310;28;20028;-69
2024/01/09 04:56:04;;;;;;;0.70;0.70;;;-3273.10;56.70;;;;;;5091026;28;20024;-69
2024/01/09 04:58:30;;;;;;;1.83;1.73;;;-3273.10;56.80;;;;;;5078378;28;20548;-69
2024/01/09 05:00:56;;;;;;;0.60;0.60;;;-3273.10;56.90;;;;;;5070859;28;20078;-69
2024/01/09 05:03:21;;;;;;;0.80;0.80;;;-3273.10;56.80;;;;;;5071585;28;20031;-69
2024/01/09 05:05:47;;;;;;;2.65;1.90;;;-3273.10;56.80;;;;;;5070310;28;20395;-69
2024/01/09 05:08:13;;;;;;;0.68;0.68;;;-3273.10;56.90;;;;;;5070439;28;20041;-69
2024/01/09 05:10:38;;;;;;;0.80;0.80;;;-3273.10;56.90;;;;;;5067580;28;20392;-69
2024/01/09 05:13:04;;;;;;;2.75;1.17;;;-3273.10;56.80;;;;;;5056739;28;20031;-69
2024/01/09 05:15:29;;;;;;;0.68;0.68;;;-3273.10;56.80;;;;;;5070438;28;20047;-69
2024/01/09 05:17:54;;;;;;;1.08;1.05;;;-3273.10;56.80;;;;;;5071100;28;20520;-69
2024/01/09 05:20:20;;;;;;;3.05;2.78;;;-3273.20;56.80;;;;;;5070157;28;20035;-69
2024/01/09 05:22:45;;;;;;;0.70;0.70;;;-3273.20;56.80;;;;;;5070837;28;20090;-69
2024/01/09 05:25:11;;;;;;;1.92;1.83;;;-3273.20;56.70;;;;;;5070664;28;20029;-69
2024/01/09 05:27:36;;;;;;;0.80;0.80;;;-3273.20;56.60;;;;;;5070586;28;20029;-69
2024/01/09 05:30:03;;;;;;;1.77;1.67;;;-3273.20;56.70;;;;;;5069988;28;20399;-69
2024/01/09 05:32:28;;;;;;;0.70;0.70;;;-3273.20;56.50;;;;;;5074356;28;20044;-69
2024/01/09 05:34:54;;;;;;;0.75;0.75;;;-3273.10;56.50;;;;;;5071122;28;20029;-69
2024/01/09 05:37:20;;;;;;;0.70;0.70;;;-3273.10;56.50;;;;;;5074595;28;20115;-68
2024/01/09 05:39:46;;;;;;;1.08;1.08;;;-3273.00;56.40;;;;;;5073249;28;20052;-69
2024/01/09 05:42:12;;;;;;;1.08;1.08;;;-3273.00;56.40;;;;;;5054479;28;20481;-69
2024/01/09 05:44:38;;;;;;;0.70;0.70;;;-3272.90;56.40;;;;;;5058870;28;20120;-69
2024/01/09 05:47:03;;;;;;;0.70;0.70;;;-3272.90;56.50;;;;;;5074262;28;20115;-69
2024/01/09 05:49:29;;;;;;;0.70;0.70;;;-3272.80;56.20;;;;;;5074101;28;20063;-69
2024/01/09 05:51:55;;;;;;;1.90;1.80;;;-3272.70;56.20;;;;;;5072796;28;20494;-69
2024/01/09 05:54:21;;;;;;;0.60;0.60;;;-3272.60;56.20;;;;;;5073837;28;20033;-69
2024/01/09 05:56:46;;;;;;;0.65;0.65;;;-3272.60;56.10;;;;;;5072546;28;20234;-69
2024/01/09 05:59:12;;;;;;;0.70;0.70;;;-3272.50;56.20;;;;;;5073970;28;20037;-69
2024/01/09 06:01:37;;;;;;;0.60;0.60;;;-3272.50;56.20;;;;;;5073309;28;20035;-70
2024/01/09 06:04:03;;;;;;;0.70;0.70;;;-3272.40;56.60;;;;;;5077343;28;20038;-69
2024/01/09 06:06:29;;;;;;;2.08;1.95;;;-3272.40;56.70;;;;;;5073508;28;20025;-69
2024/01/09 06:08:55;;;;;;;0.60;0.60;;;-3272.40;56.90;;;;;;5080341;28;20036;-69
2024/01/09 06:11:20;;;;;;;0.90;0.90;;;-3272.40;57.00;;;;;;5085322;28;20024;-69
2024/01/09 06:13:46;;;;;;;1.30;1.27;;;-3272.40;57.10;;;;;;5073519;28;20040;-68
2024/01/09 06:16:12;;;;;;;0.70;0.70;;;-3272.40;57.10;;;;;;5073589;28;20262;-68
2024/01/09 06:18:37;;;;;;;0.98;0.98;;;-3272.40;57.10;;;;;;5073412;28;20032;-68
2024/01/09 06:21:03;;;;;;;1.13;1.13;;;-3272.40;57.40;;;;;;5078172;28;20049;-70
2024/01/09 06:23:29;;;;;;;0.70;0.70;;;-3272.40;57.40;;;;;;5092519;28;20067;-69
2024/01/09 06:25:54;;;;;;;0.70;0.70;;;-3272.40;57.40;;;;;;5093759;28;20411;-68
2024/01/09 06:28:20;;;;;;;0.80;0.80;;;-3272.40;57.30;;;;;;5094230;28;20107;-68
2024/01/09 06:30:46;;;;;;;0.70;0.70;;;-3272.40;57.20;;;;;;5093487;28;20393;-71
2024/01/09 06:33:11;;;;;;;0.63;0.63;;;-3272.40;57.40;;;;;;5094060;28;20028;-68
2024/01/09 06:35:37;;;;;;;1.67;1.25;;;-3272.40;57.20;;;;;;5093665;28;20078;-68
2024/01/09 06:38:02;;;;;;;0.70;0.70;;;-3272.30;57.20;;;;;;5093773;28;20028;-69
2024/01/09 06:40:28;;;;;;;1.75;1.65;;;-3272.30;57.10;;;;;;5093542;28;20499;-68
2024/01/09 06:42:53;;;;;;;0.70;0.70;;;-3272.20;57.00;;;;;;5093795;28;20408;-70
2024/01/09 06:45:19;;;;;;;0.93;0.93;;;-3272.20;57.20;;;;;;5093085;28;20036;-69
2024/01/09 06:47:44;;;;;;;0.95;0.95;;;-3272.20;57.20;;;;;;5093464;28;20113;-68
2024/01/09 06:50:10;;;;;;;0.93;0.93;;;-3272.20;57.30;;;;;;5093282;28;20410;-69
2024/01/09 06:52:36;;;;;;;0.90;0.90;;;-3272.20;57.40;;;;;;5093244;28;20024;-69
2024/01/09 06:55:01;;;;;;;0.70;0.70;;;-3272.20;57.60;;;;;;5093359;28;20256;-69
2024/01/09 06:57:27;;;;;;;0.70;0.70;;;-3272.20;57.40;;;;;;5088223;28;20025;-68
2024/01/09 06:59:52;;;;;;;0.77;0.77;;;-3272.20;57.20;;;;;;5072783;28;20067;-68
2024/01/09 07:02:18;;;;;;;0.98;0.98;;;-3272.10;57.00;;;;;;5073207;28;20413;-68
2024/01/09 07:04:43;;;;;;;0.70;0.70;;;-3272.10;57.10;;;;;;5072680;28;20043;-68
2024/01/09 07:07:09;;;;;;;0.70;0.70;;;-3272.10;57.20;;;;;;5072596;28;20039;-68
2024/01/09 07:09:36;;;;;;;0.70;0.70;;;-3272.10;57.20;;;;;;5072893;28;20036;-68
2024/01/09 07:12:02;;;;;;;0.60;0.60;;;-3272.10;57.30;;;;;;5072883;28;20037;-68
2024/01/09 07:14:28;;;;;;;0.60;0.60;;;-3272.10;57.30;;;;;;5072527;28;20111;-68
2024/01/09 07:16:53;;;;;;;1.40;1.35;;;-3272.10;57.40;;;;;;5071993;28;20424;-68
2024/01/09 07:19:19;;;;;;;0.60;0.60;;;-3272.10;57.90;;;;;;5072404;28;20043;-68
2024/01/09 07:21:44;;;;;;;0.70;0.70;;;-3272.10;58.00;;;;;;5058885;28;20036;-69
2024/01/09 07:24:09;;;;;;;0.70;0.70;;;-3272.20;57.80;;;;;;5052543;28;20033;-68
2024/01/09 07:26:42;;;;;;;0.70;0.70;;;-3272.20;57.90;;;;;;5072152;28;20509;-68
2024/01/09 07:29:08;;;;;;;0.80;0.80;;;-3272.20;57.90;;;;;;5077306;28;20379;-68
2024/01/09 07:31:34;;;;;;;0.70;0.70;;;-3272.20;57.90;;;;;;5071407;28;20028;-68
2024/01/09 07:34:00;;;;;;;1.75;1.65;;;-3272.30;58.10;;;;;;5074058;28;20041;-68
2024/01/09 07:36:29;;;;;;;0.60;0.60;;;-3272.30;58.10;;;;;;5081440;28;20032;-68
2024/01/09 07:38:54;;;;;;;0.80;0.80;;;-3272.30;58.00;;;;;;5077316;28;20383;-70
2024/01/09 07:41:20;;;;;;;0.80;0.80;;;-3272.40;58.00;;;;;;5081232;28;20024;-70
2024/01/09 07:43:45;;;;;;;1.02;1.02;;;-3272.40;58.20;;;;;;5092256;28;20437;-71
2024/01/09 07:46:10;;;;;;;0.73;0.73;;;-3272.50;58.30;;;;;;5077578;28;20024;-71
2024/01/09 07:48:36;;;;;;;0.65;0.65;;;-3272.70;58.80;;;;;;5088374;28;20387;-70
2024/01/09 07:51:02;;;;;;;0.65;0.65;;;-3273.00;59.10;;;;;;5081261;28;20086;-70
2024/01/09 07:53:28;;;;;;;0.77;0.77;;;-3273.20;59.40;;;;;;5092436;28;20024;-71
2024/01/09 07:55:53;;;;;;;0.80;0.80;;;-3273.50;59.60;;;;;;5075825;28;20046;-68
2024/01/09 07:58:19;;;;;;;0.70;0.70;;;-3273.70;59.60;;;;;;5071517;28;20037;-69
2024/01/09 08:00:45;;;;;;;0.60;0.60;;;-3274.00;59.60;;;;;;5071532;28;20025;-68
2024/01/09 08:03:13;;;;;;;2.30;2.10;;;-3274.30;59.50;;;;;;5070004;28;20452;-69
2024/01/09 08:05:39;;;;;;;0.63;0.63;;;-3274.60;59.50;;;;;;5070199;28;20464;-69
2024/01/09 08:08:05;;;;;;;0.90;0.90;;;-3274.90;59.50;;;;;;5070717;28;20040;-69
2024/01/09 08:10:31;;;;;;;1.63;1.52;;;-3275.20;59.30;;;;;;5070554;28;20539;-68
2024/01/09 08:12:56;;;;;;;0.60;0.60;;;-3275.50;59.20;;;;;;5068151;28;20115;-69
2024/01/09 08:15:22;;;;;;;0.80;0.80;;;-3275.70;59.10;;;;;;5071275;28;20036;-69
2024/01/09 08:17:47;;;;;;;0.70;0.70;;;-3276.00;58.70;;;;;;5067248;28;20474;-69
2024/01/09 08:20:13;;;;;;;0.70;0.70;;;-3276.20;57.80;;;;;;5069815;28;20021;-69
2024/01/09 08:22:38;;;;;;;1.58;1.27;;;-3276.50;57.80;;;;;;5071163;28;20375;-69
2024/01/09 08:25:05;;;;;;;2.25;1.17;;;-3276.70;57.90;;;;;;5068373;28;20051;-69
2024/01/09 08:27:31;;;;;;;0.75;0.75;;;0.10;57.20;;;;;;5067498;28;20033;-69
2024/01/09 08:29:56;;;;;;;1.75;1.65;;;0.30;56.60;;;;;;5069308;28;20029;-69
2024/01/09 08:32:22;;;;;;;0.70;0.70;;;0.50;56.50;;;;;;5067927;28;20066;-69
2024/01/09 08:34:48;;;;;;;1.20;1.17;;;0.70;56.10;;;;;;5069501;28;20388;-69
2024/01/09 08:37:13;;;;;;;0.65;0.65;;;0.90;55.60;;;;;;5068545;28;20399;-69
2024/01/09 08:39:39;;;;;;;1.83;1.73;;;1.10;54.90;;;;;;5069343;28;20051;-72
2024/01/09 08:42:04;;;;;;;0.80;0.80;;;1.20;54.30;;;;;;5068526;28;20037;-69
2024/01/09 08:44:30;;;;;;;0.70;0.70;;;1.40;54.40;;;;;;5069297;28;20082;-69
2024/01/09 08:46:55;;;;;;;1.38;1.35;;;1.60;53.80;;;;;;5067963;28;20127;-68
2024/01/09 08:49:21;;;;;;;0.70;0.70;;;1.70;52.70;;;;;;5068748;28;20032;-69
2024/01/09 08:51:46;;;;;;;1.15;1.15;;;1.80;53.00;;;;;;5067964;28;20448;-69
2024/01/09 08:54:12;;;;;;;1.80;1.70;;;2.10;53.20;;;;;;5069325;28;20052;-69
2024/01/09 08:56:37;;;;;;;0.98;0.98;;;2.30;53.10;;;;;;5068519;28;20037;-69
2024/01/09 08:59:03;;;;;;;0.77;0.77;;;2.50;53.00;;;;;;5069211;28;20025;-69
2024/01/09 09:01:30;;;;;;;0.77;0.77;;;2.70;52.60;;;;;;5069204;28;20029;-69
2024/01/09 09:03:56;;;;;;;0.68;0.68;;;2.80;52.50;;;;;;5068414;28;20043;-69
2024/01/09 09:06:21;;;;;;;0.90;0.90;;;3.10;52.30;;;;;;5069275;28;20094;-69
2024/01/09 09:08:47;;;;;;;0.80;0.80;;;3.20;51.80;;;;;;5070631;28;20074;-69
2024/01/09 09:11:14;;;;;;;1.85;1.50;;;3.40;51.50;;;;;;5071308;28;20028;-70
2024/01/09 09:13:42;;;;;;;0.90;0.90;;;3.50;49.70;;;;;;5071402;28;20499;-69
2024/01/09 09:16:08;;;;;;;0.80;0.80;;;3.60;49.70;;;;;;5073008;28;20496;-70
2024/01/09 09:18:34;;;;;;;0.70;0.70;;;3.70;47.60;;;;;;5072064;28;20032;-69
2024/01/09 09:21:01;;;;;;;1.15;1.15;;;3.70;47.00;;;;;;5072936;28;20027;-69
2024/01/09 09:23:27;;;;;;;1.08;1.08;;;3.80;47.70;;;;;;5068341;28;20450;-69
2024/01/09 09:25:52;;;;;;;0.93;0.93;;;4.00;48.20;;;;;;5071925;28;20060;-69
2024/01/09 09:28:18;;;;;;;1.73;1.63;;;4.20;47.80;;;;;;5074241;28;20387;-69
2024/01/09 09:30:43;;;;;;;0.63;0.63;;;4.40;47.10;;;;;;5072049;28;20040;-70
2024/01/09 09:33:09;;;;;;;0.80;0.80;;;4.50;46.50;;;;;;5073934;28;20445;-69
2024/01/09 09:35:36;;;;;;;0.80;0.80;;;4.60;45.10;;;;;;5073635;28;20039;-69
2024/01/09 09:38:01;;;;;;;1.48;1.08;;;4.60;44.80;;;;;;5073989;28;20031;-69
2024/01/09 09:40:27;;;;;;;0.70;0.70;;;4.70;44.10;;;;;;5067173;28;20029;-69
2024/01/09 09:42:54;;;;;;;2.85;1.95;;;4.80;44.50;;;;;;5061871;28;20123;-69
2024/01/09 09:45:22;;;;;;;0.65;0.65;;;4.90;43.70;;;;;;5067960;28;20111;-69
2024/01/09 09:47:49;;;;;;;1.65;1.55;;;5.00;43.40;;;;;;5071374;28;20028;-69
2024/01/09 09:50:16;;;;;;;0.70;0.70;;;5.10;42.10;;;;;;5084523;28;20075;-69
2024/01/09 09:52:42;;;;;;;1.05;1.05;;;5.00;41.90;;;;;;5074206;28;20452;-70
2024/01/09 09:55:10;;;;;;;0.70;0.70;;;5.10;42.50;;;;;;5070978;28;20480;-69
2024/01/09 09:57:37;;;;;;;1.73;1.63;;;5.30;43.00;;;;;;5074118;28;20456;-68
2024/01/09 10:00:09;;;;;;;1.00;1.00;;;5.30;42.10;;;;;;5073851;28;20047;-68
2024/01/09 10:02:43;;;;;;;0.80;0.80;;;5.30;41.20;;;;;;5073981;28;20352;-68
2024/01/09 10:05:13;;;;;;;1.15;1.15;;;5.40;41.60;;;;;;5071911;28;20036;-68
2024/01/09 10:07:43;;;;;;;1.48;1.38;;;5.60;41.30;;;;;;5077922;28;20437;-69
2024/01/09 10:10:11;;;;;;;1.27;1.23;;;5.50;40.00;;;;;;5065073;28;20098;-69
2024/01/09 10:12:37;;;;;;;1.23;1.23;;;5.50;39.80;;;;;;5069670;28;20463;-68
2024/01/09 10:15:09;;;;;;;2.97;1.88;;;5.50;38.40;;;;;;5081127;28;20025;-69
2024/01/09 10:17:39;;;;;;;0.80;0.80;;;5.50;38.40;;;;;;5070157;28;20035;-69
2024/01/09 10:20:10;;;;;;;0.80;0.80;;;5.50;38.30;;;;;;5074827;28;20017;-69
2024/01/09 10:22:38;;;;;;;1.15;1.15;;;5.50;37.40;;;;;;5080108;28;20021;-68
2024/01/09 10:25:06;;;;;;;0.80;0.80;;;5.50;37.60;;;;;;5072187;28;20086;-69
2024/01/09 10:27:36;;;;;;;0.80;0.80;;;5.60;38.00;;;;;;5077122;28;20062;-69
2024/01/09 10:30:01;;;;;;;0.70;0.70;;;5.70;37.00;;;;;;5074989;28;20161;-69
2024/01/09 10:32:27;;;;;;;1.13;1.13;;;5.60;35.80;;;;;;5075342;28;20031;-68
2024/01/09 10:34:53;;;;;;;0.70;0.70;;;5.60;36.40;;;;;;5077758;28;20108;-68
2024/01/09 10:37:18;;;;;;;1.27;1.17;;;5.60;36.00;;;;;;5082814;28;20517;-69
2024/01/09 10:39:48;;;;;;;1.60;1.50;;;5.50;35.30;;;;;;5073028;28;20036;-69
2024/01/09 10:42:14;;;;;;;0.80;0.80;;;5.60;36.00;;;;;;5072220;28;20016;-68
2024/01/09 10:44:40;;;;;;;0.70;0.70;;;5.70;36.40;;;;;;5073101;28;20059;-68
2024/01/09 10:47:13;;;;;;;0.85;0.85;;;5.80;36.60;;;;;;5072263;28;20041;-69
2024/01/09 10:49:44;;;;;;;0.93;0.93;;;5.80;36.20;;;;;;5053353;28;20377;-68
2024/01/09 10:52:17;;;;;;;0.70;0.70;;;5.90;35.90;;;;;;5057004;28;20560;-68
2024/01/09 10:54:44;;;;;;;1.42;1.33;;;6.00;35.90;;;;;;5071382;28;20492;-68
2024/01/09 10:57:12;;;;;;;0.88;0.88;;;6.10;36.10;;;;;;5071374;28;20028;-68
2024/01/09 10:59:45;;;;;;;0.80;0.80;;;6.30;36.80;;;;;;5072965;28;20467;-68
2024/01/09 11:02:16;;;;;;;0.70;0.70;;;6.40;36.50;;;;;;5070360;28;20024;-68
2024/01/09 11:04:45;;;;;;;0.80;0.80;;;6.50;35.40;;;;;;5071813;28;20120;-68
2024/01/09 11:07:15;;;;;;;1.20;1.20;;;6.40;32.90;;;;;;5056631;28;20089;-68
2024/01/09 11:09:47;;;;;;;0.60;0.60;;;6.20;32.90;;;;;;5072586;28;20103;-68
2024/01/09 11:12:24;;;;;;;0.88;0.88;;;6.10;32.60;;;;;;5071033;28;20028;-68
2024/01/09 11:14:55;;;;;;;0.60;0.60;;;5.90;33.20;;;;;;5071561;28;20115;-68
2024/01/09 11:17:22;;;;;;;0.70;0.70;;;5.90;33.70;;;;;;5070276;28;20460;-69
2024/01/09 11:19:47;;;;;;;1.33;1.23;;;6.00;34.90;;;;;;5072321;28;20025;-68
2024/01/09 11:22:17;;;;;;;0.60;0.60;;;6.20;35.10;;;;;;5071197;28;20090;-68
2024/01/09 11:24:47;;;;;;;0.98;0.98;;;6.20;33.40;;;;;;5072207;28;20527;-69
2024/01/09 11:27:15;;;;;;;0.90;0.90;;;6.30;33.80;;;;;;5070257;28;20031;-68
2024/01/09 11:29:52;;;;;;;0.70;0.70;;;6.20;32.50;;;;;;5071944;28;20032;-69
2024/01/09 11:32:19;;;;;;;1.33;1.23;;;6.20;33.20;;;;;;5071399;28;20108;-69
2024/01/09 11:35:06;;;;;;;0.60;0.60;;;6.20;33.60;;;;;;5071328;28;20484;-69
2024/01/09 11:37:32;;;;;;;0.70;0.70;;;6.40;33.50;;;;;;5072070;28;20036;-69
2024/01/09 11:39:58;;;;;;;0.85;0.85;;;6.40;34.00;;;;;;5070174;28;20029;-69
2024/01/09 11:42:24;;;;;;;0.70;0.70;;;6.60;34.00;;;;;;5072190;28;20031;-69
2024/01/09 11:44:49;;;;;;;0.60;0.60;;;6.60;33.60;;;;;;5072047;28;20387;-69
2024/01/09 11:47:15;;;;;;;1.00;1.00;;;6.60;32.70;;;;;;5071143;28;20028;-69
2024/01/09 11:49:40;;;;;;;0.70;0.70;;;6.50;32.10;;;;;;5071891;28;20115;-69
2024/01/09 11:52:06;;;;;;;5.15;2.15;;;6.40;31.40;;;;;;5068585;28;20035;-69
2024/01/09 11:54:38;;;;;;;0.88;0.88;;;6.20;31.60;;;;;;5088741;27;20602;-68
2024/01/09 11:57:04;;;;;;;0.90;0.90;;;6.10;31.50;;;;;;5077214;28;20471;-68
2024/01/09 11:59:30;;;;;;;1.00;1.00;;;6.00;31.90;;;;;;5088328;28;20055;-68
2024/01/09 12:01:55;;;;;;;1.33;1.23;;;6.00;32.10;;;;;;5086811;28;20471;-68
2024/01/09 12:04:22;;;;;;;1.00;1.00;;;6.00;31.80;;;;;;5088897;28;20364;-68
2024/01/09 12:06:47;;;;;;;0.60;0.60;;;5.80;30.80;;;;;;5086617;28;20111;-68
2024/01/09 12:09:13;;;;;;;0.95;0.95;;;5.50;31.00;;;;;;5088237;28;20135;-68
2024/01/09 12:11:38;;;;;;;0.75;0.75;;;5.20;30.80;;;;;;5088113;28;20078;-68
2024/01/09 12:14:06;;;;;;;1.55;1.45;;;4.90;31.10;;;;;;5083699;28;20399;-68
2024/01/09 12:16:32;;;;;;;3.38;2.63;;;4.60;31.50;;;;;;5068011;28;20020;-69
2024/01/09 12:18:59;;;;;;;0.80;0.80;;;4.30;31.60;;;;;;5086843;28;20077;-69
2024/01/09 12:21:27;;;;;;;0.80;0.80;;;4.10;31.50;;;;;;5085830;28;20025;-69
2024/01/09 12:23:55;;;;;;;1.38;1.05;;;3.90;31.50;;;;;;5085845;28;20051;-69
2024/01/09 12:26:22;;;;;;;0.65;0.65;;;3.70;31.20;;;;;;5087924;28;20360;-69